Pleasant Hill, MO

1:08 AM CST on February 13, 2016 (GMT -0600)
Hunters Ridge | | Change Station
CLOSE
Current Station
Personal Weather Station
Location: Pleasant Hill, MO
Elevation: 944 ft
Nearby Weather Stations

Elev 944 ft 38.81 °N, 94.25 °W | Updated 2 seconds ago

Partly Cloudy
Partly Cloudy
18.5 °F
Feels Like 11 °F
N
5.0
Wind Variable Wind from NNE
Gusts 7.0 mph

Today
High -- | Low -- °F
--% Chance of Precip.
Yesterday
High -- | Low -- °F
Precip. -- in
Pressure 30.64 in
Visibility 10.0 miles
Clouds Mostly Cloudy 10000 ft
Windchill 11 °F
Dew Point 5 °F
Humidity 55%
Rainfall 0.00 in
Snow Depth Not available.
7:11 AM 5:51 PM
Waxing Crescent, 28% visible
METAR KLXT 130653Z AUTO 03010KT 10SM BKN100 M08/M16 A3060 RMK AO2 SLP374 T10781156
Pressure 30.64 in
Visibility 10.0 miles
Clouds Mostly Cloudy 10000 ft
Windchill 11 °F
Dew Point 5 °F
Humidity 55%
Rainfall 0.00 in
Snow Depth Not available.
7:11 AM 5:51 PM
Waxing Crescent, 28% visible
METAR KLXT 130653Z AUTO 03010KT 10SM BKN100 M08/M16 A3060 RMK AO2 SLP374 T10781156

10-Day Weather Forecast

Almanac

Astronomy

Feb. 13, 2016 Rise Set
Actual Time
Civil Twilight
Nautical Twilight
Astronomical Twilight
Moon
Length of Visible Light
Length of Day
Tomorrow will be .
, % of the Moon is Illuminated

Today's Extremes

State Highs State Lows

Community

WunderPhotos

Upload Photos

1,892,519 photos uploaded!

WunderBlog® & News

Nearby

Air Quality

  Air Quality AQ Index Pollutant
Not available.

Snow Depth

Station Depth Elevation

Earthquake Activity

City Distance Mag. Time & Date
Minimum magnitude displayed is 2.5.

Coastal Water Temperatures

Place Temperature

Stations

Nearby Weather Stations

Station Location Temp. Windchill Dew Point Humidity Wind Precip. Elev Updated Type
                   

Watches & Warnings

There are currently no watches in effect.